createdAt,value
2023-03-25T00:00:24.638Z,13.10
2023-03-25T00:01:29.767Z,13.10
2023-03-25T00:02:32.522Z,13.10
2023-03-25T00:03:35.512Z,13.10
2023-03-25T00:04:39.677Z,13.10
2023-03-25T00:05:41.773Z,13.10
2023-03-25T00:06:44.039Z,13.10
2023-03-25T00:07:49.036Z,13.10
2023-03-25T00:08:51.109Z,13.10
2023-03-25T00:09:54.333Z,13.00
2023-03-25T00:10:58.625Z,13.10
2023-03-25T00:12:00.756Z,13.10
2023-03-25T00:13:05.532Z,13.10
2023-03-25T00:14:07.507Z,13.10
2023-03-25T00:15:11.026Z,13.10
2023-03-25T00:16:13.068Z,13.10
2023-03-25T00:17:17.545Z,13.10
2023-03-25T00:18:21.172Z,13.10
2023-03-25T00:19:23.214Z,13.10
2023-03-25T00:20:25.164Z,13.00
2023-03-25T00:21:27.121Z,13.00
2023-03-25T00:22:29.059Z,13.00
2023-03-25T00:23:32.413Z,13.00
2023-03-25T00:24:34.451Z,13.00
2023-03-25T00:25:36.527Z,13.10
2023-03-25T00:26:42.691Z,13.10
2023-03-25T00:27:46.585Z,13.10
2023-03-25T00:28:48.879Z,13.10
2023-03-25T00:29:50.827Z,13.10
2023-03-25T00:30:53.910Z,13.10
2023-03-25T00:31:56.029Z,13.10
2023-03-25T00:33:01.758Z,13.10
2023-03-25T00:34:03.957Z,13.20
2023-03-25T00:35:08.499Z,13.20
2023-03-25T00:36:13.772Z,13.20
2023-03-25T00:37:17.777Z,13.20
2023-03-25T00:38:20.083Z,13.20
2023-03-25T00:39:22.052Z,13.20
2023-03-25T00:40:24.672Z,13.20
2023-03-25T00:41:27.496Z,13.20
2023-03-25T00:42:29.459Z,13.20
2023-03-25T00:43:31.506Z,13.30
2023-03-25T00:44:33.588Z,13.30
2023-03-25T00:45:35.640Z,13.30
2023-03-25T00:46:37.885Z,13.40
2023-03-25T00:47:40.149Z,13.40
2023-03-25T00:48:43.819Z,13.30
2023-03-25T00:49:46.488Z,13.40
2023-03-25T00:50:48.941Z,13.30
2023-03-25T00:51:54.103Z,13.30
2023-03-25T00:52:56.366Z,13.30
2023-03-25T00:54:03.477Z,13.30
2023-03-25T00:55:06.290Z,13.30
2023-03-25T00:56:08.303Z,13.30
2023-03-25T00:57:10.478Z,13.30
2023-03-25T00:58:12.446Z,13.30
2023-03-25T00:59:14.563Z,13.20
2023-03-25T01:00:18.499Z,13.20
2023-03-25T01:01:23.695Z,13.20
2023-03-25T01:02:26.088Z,13.20
2023-03-25T01:03:31.726Z,13.20
2023-03-25T01:04:35.193Z,13.20
2023-03-25T01:05:41.614Z,13.20
2023-03-25T01:06:46.554Z,13.20
2023-03-25T01:07:49.591Z,13.10
2023-03-25T01:08:53.020Z,13.10
2023-03-25T01:09:55.798Z,13.10
2023-03-25T01:10:57.861Z,13.10
2023-03-25T01:11:59.846Z,13.10
2023-03-25T01:13:01.887Z,13.00
2023-03-25T01:14:06.676Z,13.00
2023-03-25T01:15:10.562Z,12.90
2023-03-25T01:16:12.637Z,12.90
2023-03-25T01:17:14.718Z,12.90
2023-03-25T01:18:16.792Z,12.90
2023-03-25T01:19:18.736Z,12.80
2023-03-25T01:20:21.625Z,12.80
2023-03-25T01:21:23.588Z,12.70
2023-03-25T01:22:25.801Z,12.70
2023-03-25T01:23:27.858Z,12.70
2023-03-25T01:24:31.643Z,12.60
2023-03-25T01:25:33.753Z,12.60
2023-03-25T01:26:35.928Z,12.50
2023-03-25T01:27:40.063Z,12.50
2023-03-25T01:28:43.232Z,12.50
2023-03-25T01:29:45.461Z,12.40
2023-03-25T01:30:47.476Z,12.40
2023-03-25T01:31:50.194Z,12.30
2023-03-25T01:32:52.326Z,12.30
2023-03-25T01:33:54.396Z,12.30
2023-03-25T01:34:56.456Z,12.30
2023-03-25T01:35:59.170Z,12.30
2023-03-25T01:37:01.254Z,12.30
2023-03-25T01:38:04.453Z,12.30
2023-03-25T01:39:08.715Z,12.40
2023-03-25T01:40:18.415Z,12.40
2023-03-25T01:41:20.655Z,12.30
2023-03-25T01:42:22.790Z,12.30
2023-03-25T01:43:24.912Z,12.30
2023-03-25T01:44:27.965Z,12.30
2023-03-25T01:45:32.817Z,12.20
2023-03-25T01:46:45.434Z,12.20
2023-03-25T01:47:50.462Z,12.30
2023-03-25T01:48:52.614Z,12.40
2023-03-25T01:49:54.697Z,12.40
2023-03-25T01:51:01.030Z,12.40
2023-03-25T01:52:08.045Z,12.50
2023-03-25T01:53:11.068Z,12.50
2023-03-25T01:54:17.998Z,12.60
2023-03-25T01:55:20.425Z,12.70
2023-03-25T01:56:35.717Z,12.70
2023-03-25T01:57:46.238Z,12.70
2023-03-25T01:58:49.363Z,12.80
2023-03-25T01:59:53.624Z,12.80
2023-03-25T02:00:57.577Z,12.80
2023-03-25T02:02:06.422Z,12.90
2023-03-25T02:03:09.422Z,12.80
2023-03-25T02:04:14.015Z,12.80
2023-03-25T02:05:25.444Z,12.80
2023-03-25T02:06:36.468Z,12.80
2023-03-25T02:07:43.111Z,12.80
2023-03-25T02:08:45.304Z,12.80
2023-03-25T02:09:47.512Z,12.80
2023-03-25T02:10:50.366Z,12.80
2023-03-25T02:11:55.538Z,12.80
2023-03-25T02:12:58.719Z,12.70
2023-03-25T02:14:07.998Z,12.70
2023-03-25T02:15:11.277Z,12.70
2023-03-25T02:16:33.118Z,12.70
2023-03-25T02:17:59.338Z,12.70
2023-03-25T02:19:13.238Z,12.70
2023-03-25T02:21:08.319Z,12.70
2023-03-25T02:22:50.660Z,12.70
2023-03-25T02:24:30.172Z,12.60
2023-03-25T02:26:10.789Z,12.70
2023-03-25T02:29:28.163Z,12.60
2023-03-25T02:30:51.303Z,12.60
2023-03-25T02:31:53.546Z,12.60
2023-03-25T02:33:32.431Z,12.60
2023-03-25T02:34:43.954Z,12.60
2023-03-25T02:36:18.286Z,12.60
2023-03-25T02:37:50.717Z,12.60
2023-03-25T02:39:19.012Z,12.70
2023-03-25T02:40:36.642Z,12.60
2023-03-25T02:42:09.423Z,12.60
2023-03-25T02:43:39.308Z,12.60
2023-03-25T02:44:51.952Z,12.60
2023-03-25T02:45:58.769Z,12.60
2023-03-25T02:47:06.285Z,12.60
2023-03-25T02:48:14.592Z,12.60
2023-03-25T02:49:25.912Z,12.60
2023-03-25T02:50:37.007Z,12.60
2023-03-25T02:51:46.413Z,12.60
2023-03-25T02:52:52.255Z,12.60
2023-03-25T02:54:01.257Z,12.60
2023-03-25T02:55:05.804Z,12.60
2023-03-25T02:56:12.310Z,12.60
2023-03-25T02:57:19.080Z,12.70
2023-03-25T02:58:22.249Z,12.70
2023-03-25T02:59:33.262Z,12.70
2023-03-25T03:00:38.353Z,12.60
2023-03-25T03:01:41.716Z,12.60
2023-03-25T03:02:53.370Z,12.60
2023-03-25T03:03:56.645Z,12.60
2023-03-25T03:04:59.144Z,12.50
2023-03-25T03:06:02.738Z,12.50
2023-03-25T03:07:05.825Z,12.50
2023-03-25T03:08:32.182Z,12.40
2023-03-25T03:09:53.722Z,12.40
2023-03-25T03:10:55.719Z,12.40
2023-03-25T03:11:57.767Z,12.40
2023-03-25T03:13:12.856Z,12.40
2023-03-25T03:15:02.099Z,12.30
2023-03-25T03:16:16.064Z,12.30
2023-03-25T03:17:32.961Z,12.30
2023-03-25T03:19:02.353Z,12.20
2023-03-25T03:20:32.700Z,12.20
2023-03-25T03:21:51.521Z,12.20
2023-03-25T03:23:10.958Z,12.20
2023-03-25T03:24:33.686Z,12.10
2023-03-25T03:26:00.735Z,12.10
2023-03-25T03:27:15.001Z,12.00
2023-03-25T03:28:24.726Z,12.00
2023-03-25T03:29:35.994Z,11.90
2023-03-25T03:30:56.350Z,11.90
2023-03-25T03:32:06.592Z,11.90
2023-03-25T03:33:21.838Z,11.90
2023-03-25T03:34:44.762Z,11.90
2023-03-25T03:36:02.304Z,11.90
2023-03-25T03:37:05.999Z,11.90
2023-03-25T03:38:12.681Z,11.90
2023-03-25T03:39:51.859Z,11.90
2023-03-25T03:40:58.395Z,11.90
2023-03-25T03:42:10.000Z,11.90
2023-03-25T03:43:50.391Z,11.90
2023-03-25T03:45:00.821Z,12.00
2023-03-25T03:46:06.976Z,12.00
2023-03-25T03:47:18.403Z,12.00
2023-03-25T03:48:28.807Z,12.00
2023-03-25T03:49:38.654Z,12.00
2023-03-25T03:50:48.768Z,12.00
2023-03-25T03:51:57.994Z,12.00
2023-03-25T03:53:05.972Z,11.90
2023-03-25T03:54:27.999Z,11.90
2023-03-25T03:56:01.783Z,11.90
2023-03-25T03:57:11.996Z,11.90
2023-03-25T03:58:25.514Z,11.80
2023-03-25T03:59:34.692Z,11.80
2023-03-25T04:00:59.916Z,11.80
2023-03-25T04:02:14.314Z,11.80
2023-03-25T04:03:24.646Z,11.80
2023-03-25T04:04:27.428Z,11.90
2023-03-25T04:05:32.344Z,11.90
2023-03-25T04:06:41.803Z,11.90
2023-03-25T04:08:02.597Z,11.90
2023-03-25T04:09:28.424Z,12.00
2023-03-25T04:10:59.235Z,12.00
2023-03-25T04:12:18.502Z,12.00
2023-03-25T04:13:22.163Z,12.10
2023-03-25T04:14:24.210Z,12.10
2023-03-25T04:15:26.530Z,12.10
2023-03-25T04:16:28.653Z,12.10
2023-03-25T04:17:33.008Z,12.10
2023-03-25T04:18:35.186Z,12.20
2023-03-25T04:19:37.374Z,12.20
2023-03-25T04:20:44.974Z,12.20
2023-03-25T04:21:50.702Z,12.20
2023-03-25T04:22:52.980Z,12.20
2023-03-25T04:23:54.913Z,12.20
2023-03-25T04:25:00.277Z,12.20
2023-03-25T04:26:03.014Z,12.10
2023-03-25T04:27:05.163Z,12.10
2023-03-25T04:28:07.231Z,12.10
2023-03-25T04:29:10.017Z,12.00
2023-03-25T04:30:12.449Z,12.00
2023-03-25T04:31:16.669Z,12.00
2023-03-25T04:32:19.278Z,12.00
2023-03-25T04:33:22.418Z,11.90
2023-03-25T04:34:24.971Z,11.90
2023-03-25T04:35:27.087Z,11.80
2023-03-25T04:36:29.230Z,11.80
2023-03-25T04:37:33.817Z,11.70
2023-03-25T04:38:37.802Z,11.70
2023-03-25T04:39:39.931Z,11.70
2023-03-25T04:40:46.607Z,11.60
2023-03-25T04:41:56.753Z,11.70
2023-03-25T04:42:59.139Z,11.60
2023-03-25T04:44:01.177Z,11.60
2023-03-25T04:45:07.680Z,11.60
2023-03-25T04:46:14.031Z,11.60
2023-03-25T04:47:17.997Z,11.60
2023-03-25T04:48:30.496Z,11.60
2023-03-25T04:49:32.678Z,11.60
2023-03-25T04:50:34.648Z,11.70
2023-03-25T04:51:36.807Z,11.70
2023-03-25T04:52:39.253Z,11.70
2023-03-25T04:53:42.741Z,11.70
2023-03-25T04:54:47.730Z,11.70
2023-03-25T04:55:50.518Z,11.80
2023-03-25T04:56:52.909Z,11.80
2023-03-25T04:57:55.768Z,11.70
2023-03-25T04:58:57.705Z,11.70
2023-03-25T04:59:59.748Z,11.70
2023-03-25T05:01:06.164Z,11.70
2023-03-25T05:02:13.286Z,11.70
2023-03-25T05:03:16.040Z,11.60
2023-03-25T05:04:18.773Z,11.60
2023-03-25T05:05:23.848Z,11.60
2023-03-25T05:06:26.347Z,11.60
2023-03-25T05:07:29.972Z,11.60
2023-03-25T05:08:32.400Z,11.60
2023-03-25T05:09:34.377Z,11.60
2023-03-25T05:10:38.588Z,11.60
2023-03-25T05:11:41.903Z,11.60
2023-03-25T05:12:43.871Z,11.60
2023-03-25T05:13:45.820Z,11.60
2023-03-25T05:14:47.794Z,11.50
2023-03-25T05:15:49.959Z,11.50
2023-03-25T05:16:52.213Z,11.50
2023-03-25T05:17:54.331Z,11.40
2023-03-25T05:18:56.337Z,11.30
2023-03-25T05:19:58.278Z,11.30
2023-03-25T05:21:02.906Z,11.30
2023-03-25T05:22:05.156Z,11.20
2023-03-25T05:23:12.293Z,11.20
2023-03-25T05:24:14.461Z,11.20
2023-03-25T05:25:18.197Z,11.20
2023-03-25T05:26:20.879Z,11.20
2023-03-25T05:27:22.923Z,11.10
2023-03-25T05:28:24.951Z,11.20
2023-03-25T05:29:26.973Z,11.20
2023-03-25T05:30:32.574Z,11.20
2023-03-25T05:31:35.128Z,11.10
2023-03-25T05:32:37.400Z,11.10
2023-03-25T05:33:43.431Z,11.10
2023-03-25T05:34:49.096Z,11.10
2023-03-25T05:35:51.232Z,11.10
2023-03-25T05:36:54.215Z,11.10
2023-03-25T05:37:56.774Z,11.10
2023-03-25T05:38:59.215Z,11.10
2023-03-25T05:40:01.574Z,11.10
2023-03-25T05:41:03.549Z,11.10
2023-03-25T05:42:05.589Z,11.10
2023-03-25T05:43:08.043Z,11.10
2023-03-25T05:44:15.603Z,11.20
2023-03-25T05:45:17.747Z,11.10
2023-03-25T05:46:20.303Z,11.20
2023-03-25T05:47:24.688Z,11.20
2023-03-25T05:48:27.122Z,11.20
2023-03-25T05:49:29.834Z,11.20
2023-03-25T05:50:31.893Z,11.30
2023-03-25T05:51:37.613Z,11.30
2023-03-25T05:52:41.985Z,11.30
2023-03-25T05:53:49.756Z,11.30
2023-03-25T05:54:52.077Z,11.30
2023-03-25T05:55:54.098Z,11.30
2023-03-25T05:56:56.184Z,11.30
2023-03-25T05:57:58.869Z,11.30
2023-03-25T05:59:00.943Z,11.40
2023-03-25T06:00:08.121Z,11.40
2023-03-25T06:01:31.216Z,11.50
2023-03-25T06:02:35.707Z,11.50
2023-03-25T06:03:38.768Z,11.50
2023-03-25T06:04:43.662Z,11.50
2023-03-25T06:05:45.584Z,11.50
2023-03-25T06:06:47.850Z,11.60
2023-03-25T06:07:50.175Z,11.60
2023-03-25T06:08:52.110Z,11.60
2023-03-25T06:09:54.353Z,11.60
2023-03-25T06:10:58.490Z,11.60
2023-03-25T06:12:02.000Z,11.70
2023-03-25T06:13:04.038Z,11.70
2023-03-25T06:14:06.959Z,11.70
2023-03-25T06:15:10.547Z,11.80
2023-03-25T06:16:12.583Z,11.80
2023-03-25T06:17:16.439Z,11.80
2023-03-25T06:18:18.437Z,11.80
2023-03-25T06:19:20.436Z,11.80
2023-03-25T06:20:22.443Z,11.80
2023-03-25T06:21:26.590Z,11.80
2023-03-25T06:22:29.047Z,11.90
2023-03-25T06:23:35.450Z,11.90
2023-03-25T06:24:41.409Z,11.90
2023-03-25T06:25:43.576Z,11.90
2023-03-25T06:26:45.557Z,11.90
2023-03-25T06:27:50.001Z,11.90
2023-03-25T06:28:52.324Z,11.90
2023-03-25T06:29:54.276Z,11.90
2023-03-25T06:30:57.231Z,12.00
2023-03-25T06:31:59.266Z,12.00
2023-03-25T06:33:03.481Z,12.00
2023-03-25T06:34:05.555Z,12.10
2023-03-25T06:35:09.637Z,12.20
2023-03-25T06:36:15.464Z,12.20
2023-03-25T06:37:17.561Z,12.30
2023-03-25T06:38:21.665Z,12.30
2023-03-25T06:39:37.886Z,12.30
2023-03-25T06:40:48.120Z,12.40
2023-03-25T06:41:50.309Z,12.40
2023-03-25T06:42:59.282Z,12.40
2023-03-25T06:44:10.678Z,12.50
2023-03-25T06:45:21.205Z,12.50
2023-03-25T06:46:41.526Z,12.50
2023-03-25T06:47:50.598Z,12.60
2023-03-25T06:48:52.652Z,12.70
2023-03-25T06:49:54.883Z,12.70
2023-03-25T06:50:56.913Z,12.80
2023-03-25T06:51:58.907Z,12.80
2023-03-25T06:53:00.945Z,12.90
2023-03-25T06:54:02.988Z,12.90
2023-03-25T06:55:05.536Z,13.00
2023-03-25T06:56:07.872Z,13.00
2023-03-25T06:57:09.940Z,13.00
2023-03-25T06:58:12.037Z,13.10
2023-03-25T06:59:14.057Z,13.10
2023-03-25T07:00:20.470Z,13.10
2023-03-25T07:01:22.806Z,13.10
2023-03-25T07:02:24.893Z,13.10
2023-03-25T07:03:26.891Z,13.20
2023-03-25T07:04:28.853Z,13.20
2023-03-25T07:05:31.087Z,13.20
2023-03-25T07:06:33.100Z,13.20
2023-03-25T07:07:35.217Z,13.20
2023-03-25T07:08:37.206Z,13.30
2023-03-25T07:09:39.297Z,13.40
2023-03-25T07:10:41.361Z,13.40
2023-03-25T07:11:43.915Z,13.50
2023-03-25T07:12:45.906Z,13.50
2023-03-25T07:13:47.928Z,13.60
2023-03-25T07:14:53.968Z,13.70
2023-03-25T07:15:56.608Z,13.70
2023-03-25T07:16:58.673Z,13.90
2023-03-25T07:18:00.889Z,13.90
2023-03-25T07:19:02.978Z,14.00
2023-03-25T07:20:06.666Z,14.10
2023-03-25T07:21:08.675Z,14.10
2023-03-25T07:22:10.873Z,14.20
2023-03-25T07:23:12.825Z,14.50
2023-03-25T07:24:15.027Z,14.80
2023-03-25T07:25:17.082Z,15.00
2023-03-25T07:26:19.141Z,15.20
2023-03-25T07:27:21.265Z,15.40
2023-03-25T07:28:32.830Z,15.60
2023-03-25T07:29:34.836Z,15.80
2023-03-25T07:30:36.826Z,16.00
2023-03-25T07:31:42.548Z,16.20
2023-03-25T07:32:45.838Z,16.30
2023-03-25T07:33:48.305Z,16.20
2023-03-25T07:34:50.491Z,16.30
2023-03-25T07:35:53.184Z,16.20
2023-03-25T07:36:55.415Z,16.30
2023-03-25T07:37:57.404Z,16.40
2023-03-25T07:38:59.490Z,16.50
2023-03-25T07:40:01.521Z,16.50
2023-03-25T07:41:08.451Z,16.60
2023-03-25T07:42:10.602Z,16.70
2023-03-25T07:43:39.645Z,16.90
2023-03-25T07:45:13.668Z,17.00
2023-03-25T07:46:17.734Z,17.30
2023-03-25T07:47:19.799Z,17.50
2023-03-25T07:48:22.795Z,17.80
2023-03-25T07:49:24.809Z,18.00
2023-03-25T07:50:26.814Z,18.00
2023-03-25T07:51:30.252Z,18.10
2023-03-25T07:52:32.376Z,18.00
2023-03-25T07:53:34.491Z,18.00
2023-03-25T07:54:36.990Z,17.90
2023-03-25T07:55:39.019Z,17.90
2023-03-25T07:56:41.125Z,17.90
2023-03-25T07:57:43.184Z,18.10
2023-03-25T07:58:45.589Z,18.10
2023-03-25T07:59:47.642Z,18.00
2023-03-25T08:00:49.613Z,17.90
2023-03-25T08:01:51.730Z,18.00
2023-03-25T08:02:54.057Z,18.10
2023-03-25T08:03:56.114Z,17.90
2023-03-25T08:04:58.092Z,17.90
2023-03-25T08:06:03.217Z,17.90
2023-03-25T08:07:05.448Z,17.90
2023-03-25T08:08:07.676Z,18.10
2023-03-25T08:09:10.279Z,18.30
2023-03-25T08:10:15.217Z,18.40
2023-03-25T08:11:17.263Z,18.30
2023-03-25T08:12:19.504Z,18.30
2023-03-25T08:13:21.467Z,18.30
2023-03-25T08:14:23.476Z,18.20
2023-03-25T08:15:25.777Z,18.20
2023-03-25T08:16:27.850Z,18.10
2023-03-25T08:17:30.065Z,18.10
2023-03-25T08:18:32.180Z,18.10
2023-03-25T08:19:34.486Z,18.00
2023-03-25T08:20:36.667Z,18.10
2023-03-25T08:21:38.860Z,18.10
2023-03-25T08:22:41.443Z,18.20
2023-03-25T08:23:44.700Z,18.20
2023-03-25T08:24:47.623Z,18.20
2023-03-25T08:25:51.496Z,18.30
2023-03-25T08:26:56.373Z,18.40
2023-03-25T08:27:58.424Z,18.60
2023-03-25T08:29:02.842Z,18.70
2023-03-25T08:30:05.651Z,18.60
2023-03-25T08:31:08.920Z,18.80
2023-03-25T08:32:11.382Z,19.00
2023-03-25T08:33:13.322Z,19.30
2023-03-25T08:34:15.417Z,19.40
2023-03-25T08:35:19.598Z,19.50
2023-03-25T08:36:23.358Z,19.40
2023-03-25T08:37:26.016Z,19.60
2023-03-25T08:38:34.668Z,19.70
2023-03-25T08:39:40.194Z,19.60
2023-03-25T08:40:43.879Z,19.40
2023-03-25T08:41:46.176Z,19.30
2023-03-25T08:42:48.223Z,19.50
2023-03-25T08:43:50.616Z,19.60
2023-03-25T08:44:52.624Z,19.70
2023-03-25T08:45:54.941Z,19.90
2023-03-25T08:46:57.142Z,20.00
2023-03-25T08:47:59.520Z,20.20
2023-03-25T08:49:01.530Z,20.10
2023-03-25T08:50:04.360Z,19.90
2023-03-25T08:51:07.177Z,19.80
2023-03-25T08:52:10.356Z,19.70
2023-03-25T08:53:12.326Z,19.80
2023-03-25T08:54:14.357Z,19.80
2023-03-25T08:55:17.726Z,19.90
2023-03-25T08:56:19.771Z,20.10
2023-03-25T08:57:21.900Z,20.30
2023-03-25T08:58:25.280Z,20.30
2023-03-25T08:59:28.361Z,20.30
2023-03-25T09:00:31.367Z,20.50
2023-03-25T09:01:33.342Z,20.60
2023-03-25T09:02:35.631Z,20.60
2023-03-25T09:03:38.616Z,20.60
2023-03-25T09:04:40.935Z,20.60
2023-03-25T09:05:43.066Z,20.60
2023-03-25T09:06:47.741Z,20.70
2023-03-25T09:07:50.683Z,20.70
2023-03-25T09:08:52.656Z,20.80
2023-03-25T09:09:54.647Z,21.00
2023-03-25T09:10:56.748Z,21.10
2023-03-25T09:11:58.679Z,21.40
2023-03-25T09:13:00.730Z,21.40
2023-03-25T09:14:03.999Z,21.30
2023-03-25T09:15:06.670Z,21.40
2023-03-25T09:16:09.555Z,21.50
2023-03-25T09:17:11.603Z,21.50
2023-03-25T09:18:13.762Z,21.50
2023-03-25T09:19:15.668Z,21.60
2023-03-25T09:20:18.800Z,21.70
2023-03-25T09:21:20.951Z,22.00
2023-03-25T09:22:23.017Z,22.30
2023-03-25T09:23:24.999Z,22.30
2023-03-25T09:24:27.092Z,22.30
2023-03-25T09:25:30.040Z,22.30
2023-03-25T09:26:32.027Z,22.30
2023-03-25T09:27:34.669Z,22.50
2023-03-25T09:28:36.714Z,22.60
2023-03-25T09:29:38.700Z,22.80
2023-03-25T09:30:41.275Z,22.80
2023-03-25T09:31:43.266Z,22.60
2023-03-25T09:32:45.526Z,22.60
2023-03-25T09:33:47.508Z,22.70
2023-03-25T09:34:49.532Z,22.70
2023-03-25T09:35:51.810Z,22.70
2023-03-25T09:36:55.794Z,22.80
2023-03-25T09:37:57.887Z,22.80
2023-03-25T09:38:59.894Z,22.80
2023-03-25T09:40:02.046Z,23.00
2023-03-25T09:41:16.780Z,23.10
2023-03-25T09:43:08.749Z,22.90
2023-03-25T09:44:22.029Z,23.00
2023-03-25T09:45:56.405Z,23.10
2023-03-25T09:47:01.441Z,23.10
2023-03-25T09:48:08.298Z,23.00
2023-03-25T09:49:18.785Z,23.00
2023-03-25T09:50:23.654Z,22.90
2023-03-25T09:51:30.674Z,23.00
2023-03-25T09:52:43.282Z,23.00
2023-03-25T09:53:55.346Z,23.00
2023-03-25T09:55:04.533Z,22.70
2023-03-25T09:56:11.655Z,22.60
2023-03-25T09:57:20.969Z,22.60
2023-03-25T09:58:46.190Z,22.60
2023-03-25T09:59:50.812Z,22.70
2023-03-25T10:01:39.372Z,22.70
2023-03-25T10:02:55.428Z,22.60
2023-03-25T10:04:10.243Z,22.90
2023-03-25T10:05:21.190Z,22.90
2023-03-25T10:06:26.433Z,22.80
2023-03-25T10:07:28.431Z,22.70
2023-03-25T10:08:55.699Z,22.80
2023-03-25T10:10:19.410Z,23.10
2023-03-25T10:11:58.591Z,23.10
2023-03-25T10:13:22.621Z,23.30
2023-03-25T10:14:56.648Z,23.30
2023-03-25T10:16:01.653Z,23.40
2023-03-25T10:17:21.639Z,23.40
2023-03-25T10:18:42.122Z,23.50
2023-03-25T10:20:11.524Z,23.70
2023-03-25T10:21:35.454Z,23.70
2023-03-25T10:23:16.447Z,23.90
2023-03-25T10:24:20.316Z,23.60
2023-03-25T10:25:28.357Z,23.60
2023-03-25T10:27:13.265Z,23.60
2023-03-25T10:28:20.774Z,23.70
2023-03-25T10:29:31.829Z,23.70
2023-03-25T10:30:44.164Z,23.70
2023-03-25T10:31:59.541Z,23.80
2023-03-25T10:33:04.912Z,23.90
2023-03-25T10:34:19.763Z,24.00
2023-03-25T10:35:27.633Z,23.90
2023-03-25T10:36:38.079Z,24.00
2023-03-25T10:37:42.192Z,24.20
2023-03-25T10:38:46.730Z,24.30
2023-03-25T10:39:50.059Z,24.20
2023-03-25T10:41:04.088Z,24.30
2023-03-25T10:42:35.853Z,24.20
2023-03-25T10:43:41.690Z,24.30
2023-03-25T10:44:46.079Z,24.20
2023-03-25T10:45:49.921Z,24.00
2023-03-25T10:47:06.350Z,24.00
2023-03-25T10:48:22.935Z,23.90
2023-03-25T10:49:29.962Z,23.70
2023-03-25T10:50:32.152Z,23.80
2023-03-25T10:51:36.400Z,23.80
2023-03-25T10:52:38.469Z,23.90
2023-03-25T10:53:42.338Z,24.00
2023-03-25T10:54:53.640Z,24.20
2023-03-25T10:56:02.246Z,24.00
2023-03-25T10:57:08.804Z,24.00
2023-03-25T10:58:16.488Z,24.10
2023-03-25T10:59:51.603Z,24.10
2023-03-25T11:00:53.767Z,24.30
2023-03-25T11:01:57.877Z,24.30
2023-03-25T11:03:02.213Z,24.40
2023-03-25T11:04:07.541Z,24.20
2023-03-25T11:05:09.873Z,24.20
2023-03-25T11:06:33.185Z,24.20
2023-03-25T11:07:37.184Z,24.30
2023-03-25T11:08:57.441Z,24.40
2023-03-25T11:10:24.649Z,24.60
2023-03-25T11:11:33.838Z,24.60
2023-03-25T11:12:42.994Z,24.50
2023-03-25T11:13:45.693Z,24.50
2023-03-25T11:14:56.775Z,24.40
2023-03-25T11:16:02.420Z,24.60
2023-03-25T11:17:11.586Z,24.80
2023-03-25T11:18:29.726Z,24.60
2023-03-25T11:19:44.066Z,24.80
2023-03-25T11:20:54.536Z,24.80
2023-03-25T11:22:02.721Z,24.60
2023-03-25T11:23:31.398Z,24.50
2023-03-25T11:24:40.294Z,24.60
2023-03-25T11:25:43.672Z,24.60
2023-03-25T11:26:48.747Z,24.60
2023-03-25T11:27:58.354Z,24.80
2023-03-25T11:29:06.735Z,24.70
2023-03-25T11:30:19.655Z,24.90
2023-03-25T11:31:26.506Z,24.80
2023-03-25T11:32:37.654Z,24.80
2023-03-25T11:33:41.237Z,24.70
2023-03-25T11:34:48.088Z,24.60
2023-03-25T11:35:50.449Z,24.60
2023-03-25T11:37:06.429Z,24.60
2023-03-25T11:38:37.653Z,24.50
2023-03-25T11:39:41.120Z,24.60
2023-03-25T11:40:59.649Z,24.50
2023-03-25T11:42:16.840Z,24.60
2023-03-25T11:43:30.935Z,24.80
2023-03-25T11:44:33.480Z,24.60
2023-03-25T11:45:39.135Z,24.60
2023-03-25T11:46:50.663Z,24.70
2023-03-25T11:47:53.393Z,24.90
2023-03-25T11:48:55.605Z,25.00
2023-03-25T11:49:58.553Z,25.00
2023-03-25T11:51:05.190Z,24.80
2023-03-25T11:52:17.891Z,24.50
2023-03-25T11:53:21.540Z,24.50
2023-03-25T11:54:25.989Z,24.80
2023-03-25T11:56:05.190Z,25.00
2023-03-25T11:57:14.516Z,25.00
2023-03-25T11:58:22.873Z,25.20
2023-03-25T11:59:36.808Z,25.20
2023-03-25T12:00:40.891Z,25.20
2023-03-25T12:01:47.277Z,25.20
2023-03-25T12:03:00.335Z,25.00
2023-03-25T12:04:17.727Z,25.20
2023-03-25T12:05:19.744Z,25.20
2023-03-25T12:06:22.924Z,25.20
2023-03-25T12:07:25.731Z,25.30
2023-03-25T12:08:48.903Z,25.10
2023-03-25T12:10:06.014Z,25.20
2023-03-25T12:11:14.411Z,25.10
2023-03-25T12:12:32.290Z,25.10
2023-03-25T12:13:34.247Z,25.20
2023-03-25T12:15:18.203Z,24.80
2023-03-25T12:16:25.603Z,24.70
2023-03-25T12:17:36.953Z,24.80
2023-03-25T12:19:00.228Z,24.60
2023-03-25T12:20:21.488Z,24.50
2023-03-25T12:21:42.261Z,24.60
2023-03-25T12:22:59.332Z,24.40
2023-03-25T12:24:29.138Z,24.50
2023-03-25T12:26:00.911Z,24.60
2023-03-25T12:27:27.431Z,24.60
2023-03-25T12:28:53.817Z,24.80
2023-03-25T12:30:29.706Z,24.70
2023-03-25T12:31:46.807Z,24.60
2023-03-25T12:33:00.765Z,24.70
2023-03-25T12:34:24.082Z,24.60
2023-03-25T12:35:58.688Z,24.40
2023-03-25T12:37:09.637Z,24.40
2023-03-25T12:38:22.919Z,24.60
2023-03-25T12:39:51.758Z,24.60
2023-03-25T12:41:11.699Z,24.70
2023-03-25T12:42:26.707Z,24.70
2023-03-25T12:43:40.373Z,24.60
2023-03-25T12:45:18.759Z,24.50
2023-03-25T12:46:48.408Z,24.60
2023-03-25T12:48:15.442Z,24.50
2023-03-25T12:49:54.219Z,24.50
2023-03-25T12:51:28.204Z,24.80
2023-03-25T12:53:01.493Z,24.90
2023-03-25T12:54:26.742Z,25.00
2023-03-25T12:55:47.274Z,25.10
2023-03-25T12:57:11.209Z,25.00
2023-03-25T12:58:56.117Z,24.60
2023-03-25T13:00:26.732Z,24.60
2023-03-25T13:01:41.554Z,24.60
2023-03-25T13:02:49.621Z,24.60
2023-03-25T13:04:16.030Z,24.60
2023-03-25T13:05:18.814Z,24.80
2023-03-25T13:06:23.663Z,24.80
2023-03-25T13:07:34.512Z,24.70
2023-03-25T13:08:49.122Z,24.80
2023-03-25T13:10:13.649Z,24.60
2023-03-25T13:11:21.960Z,24.40
2023-03-25T13:12:30.037Z,24.30
2023-03-25T13:13:35.616Z,24.40
2023-03-25T13:15:03.568Z,24.30
2023-03-25T13:16:09.361Z,24.00
2023-03-25T13:17:24.177Z,24.20
2023-03-25T13:19:13.733Z,24.20
2023-03-25T13:20:17.495Z,24.00
2023-03-25T13:21:30.233Z,24.00
2023-03-25T13:22:36.610Z,24.10
2023-03-25T13:23:40.498Z,24.10
2023-03-25T13:24:52.980Z,24.10
2023-03-25T13:26:00.048Z,24.00
2023-03-25T13:27:04.639Z,24.20
2023-03-25T13:28:13.428Z,24.10
2023-03-25T13:29:34.509Z,24.20
2023-03-25T13:30:42.623Z,24.20
2023-03-25T13:31:47.096Z,24.20
2023-03-25T13:32:54.864Z,24.30
2023-03-25T13:34:35.379Z,24.20
2023-03-25T13:35:51.822Z,24.30
2023-03-25T13:37:22.072Z,24.20
2023-03-25T13:38:30.348Z,24.00
2023-03-25T13:40:14.151Z,24.10
2023-03-25T13:41:36.466Z,24.00
2023-03-25T13:42:51.854Z,24.00
2023-03-25T13:44:02.957Z,24.10
2023-03-25T13:45:07.495Z,24.00
2023-03-25T13:46:13.826Z,24.00
2023-03-25T13:47:19.055Z,23.90
2023-03-25T13:48:28.581Z,23.60
2023-03-25T13:49:42.922Z,23.50
2023-03-25T13:50:45.143Z,23.20
2023-03-25T13:51:48.213Z,23.30
2023-03-25T13:53:08.251Z,23.40
2023-03-25T13:54:14.065Z,23.60
2023-03-25T13:55:24.886Z,23.70
2023-03-25T13:56:48.134Z,23.70
2023-03-25T13:58:04.938Z,23.60
2023-03-25T13:59:06.997Z,23.60
2023-03-25T14:00:12.451Z,23.50
2023-03-25T14:01:27.661Z,23.40
2023-03-25T14:03:09.961Z,23.40
2023-03-25T14:04:11.992Z,23.30
2023-03-25T14:05:51.658Z,23.10
2023-03-25T14:07:42.622Z,23.00
2023-03-25T14:09:05.837Z,22.80
2023-03-25T14:10:40.546Z,22.80
2023-03-25T14:11:55.953Z,22.50
2023-03-25T14:13:02.172Z,22.50
2023-03-25T14:14:11.359Z,22.20
2023-03-25T14:15:22.889Z,22.00
2023-03-25T14:16:35.874Z,21.80
2023-03-25T14:17:39.755Z,21.60
2023-03-25T14:18:50.819Z,21.50
2023-03-25T14:19:55.646Z,21.50
2023-03-25T14:21:11.387Z,21.20
2023-03-25T14:22:24.075Z,21.30
2023-03-25T14:23:31.165Z,21.20
2023-03-25T14:24:36.662Z,21.10
2023-03-25T14:25:47.948Z,21.10
2023-03-25T14:26:53.693Z,20.90
2023-03-25T14:27:55.776Z,20.90
2023-03-25T14:29:02.206Z,20.80
2023-03-25T14:30:24.997Z,20.70
2023-03-25T14:31:32.697Z,20.70
2023-03-25T14:32:40.328Z,20.70
2023-03-25T14:34:01.004Z,20.70
2023-03-25T14:35:34.137Z,20.70
2023-03-25T14:36:39.536Z,20.70
2023-03-25T14:37:41.935Z,20.60
2023-03-25T14:38:57.371Z,20.50
2023-03-25T14:41:02.300Z,20.60
2023-03-25T14:42:08.335Z,20.90
2023-03-25T14:43:26.824Z,20.90
2023-03-25T14:44:34.587Z,21.00
2023-03-25T14:45:51.021Z,21.00